Time;durP1;ratioP1;P1;durP2;ratioP2;P2;SDS_P1;SDS_P2;PMS_P1;PMS_P2;Temp;Humidity;BMP_temperature;BMP_pressure;BME280_temperature;BME280_humidity;BME280_pressure;Samples;Min_cycle;Max_cycle;Signal;HPM_P1;HPM_P2
2023/05/22 00:00:25;;;;;;;23.00;16.85;;;21.20;95.70;;;;;;5095557;28;20032;-82
2023/05/22 00:02:51;;;;;;;20.95;16.38;;;21.30;95.80;;;;;;5095215;28;20152;-82
2023/05/22 00:05:17;;;;;;;19.05;14.75;;;21.30;95.90;;;;;;5113801;28;20480;-82
2023/05/22 00:07:44;;;;;;;17.08;13.10;;;21.40;95.80;;;;;;5095643;28;20434;-82
2023/05/22 00:10:10;;;;;;;15.95;13.70;;;21.30;95.70;;;;;;5113965;28;20019;-81
2023/05/22 00:12:36;;;;;;;22.40;15.43;;;21.30;95.70;;;;;;5113855;28;20039;-82
2023/05/22 00:15:02;;;;;;;18.02;13.55;;;21.30;95.70;;;;;;5095216;28;20032;-82
2023/05/22 00:17:29;;;;;;;18.13;13.50;;;21.10;95.90;;;;;;5095552;28;20467;-82
2023/05/22 00:19:55;;;;;;;15.57;13.05;;;21.10;95.80;;;;;;5113791;28;20024;-82
2023/05/22 00:22:21;;;;;;;15.55;12.35;;;21.10;95.80;;;;;;5095106;28;20490;-82
2023/05/22 00:24:46;;;;;;;19.23;14.02;;;21.10;95.80;;;;;;5113736;28;20027;-82
2023/05/22 00:27:12;;;;;;;19.75;14.25;;;21.10;95.90;;;;;;5078772;28;20028;-81
2023/05/22 00:29:38;;;;;;;17.63;12.68;;;21.10;96.00;;;;;;5095109;28;20498;-81
2023/05/22 00:32:05;;;;;;;19.42;14.35;;;21.10;95.90;;;;;;5078613;28;20038;-82
2023/05/22 00:34:30;;;;;;;19.67;13.98;;;21.00;96.00;;;;;;5094849;28;20031;-81
2023/05/22 00:36:56;;;;;;;18.63;14.40;;;20.90;96.10;;;;;;5095565;28;20107;-82
2023/05/22 00:39:22;;;;;;;23.58;14.80;;;20.80;96.30;;;;;;5113696;28;20027;-81
2023/05/22 00:41:47;;;;;;;19.05;14.90;;;20.70;96.50;;;;;;5078480;28;20092;-81
2023/05/22 00:44:13;;;;;;;20.85;14.20;;;20.70;96.60;;;;;;5095444;28;20028;-81
2023/05/22 00:46:39;;;;;;;16.10;13.25;;;20.70;96.60;;;;;;5113677;28;20032;-81
2023/05/22 00:49:05;;;;;;;19.95;13.88;;;20.70;96.60;;;;;;5113272;28;20431;-81
2023/05/22 00:51:31;;;;;;;21.27;16.20;;;20.70;96.70;;;;;;5113477;28;20039;-81
2023/05/22 00:53:57;;;;;;;20.33;14.13;;;20.60;96.80;;;;;;5078840;28;20077;-81
2023/05/22 00:56:23;;;;;;;18.92;13.23;;;20.60;96.90;;;;;;5113693;28;20102;-81
2023/05/22 00:58:49;;;;;;;20.50;16.17;;;20.60;97.00;;;;;;5095895;28;20040;-81
2023/05/22 01:01:16;;;;;;;19.70;15.73;;;20.40;97.20;;;;;;5117359;28;20032;-81
2023/05/22 01:03:43;;;;;;;23.17;17.13;;;20.20;97.50;;;;;;5116593;28;20464;-80
2023/05/22 01:06:13;;;;;;;21.63;16.65;;;20.10;98.00;;;;;;5117353;28;20504;-81
2023/05/22 01:08:40;;;;;;;23.70;17.38;;;19.90;98.30;;;;;;5098549;28;20388;-81
2023/05/22 01:11:27;;;;;;;25.88;18.10;;;19.80;98.50;;;;;;5098979;28;20028;-81
2023/05/22 01:13:59;;;;;;;25.05;16.48;;;19.60;99.10;;;;;;5116892;28;20035;-81
2023/05/22 01:16:28;;;;;;;20.15;16.65;;;19.50;99.40;;;;;;5098876;28;20053;-81
2023/05/22 01:19:14;;;;;;;24.17;17.27;;;19.60;99.50;;;;;;5117198;28;20020;-81
2023/05/22 01:21:46;;;;;;;21.25;15.80;;;19.60;99.60;;;;;;5098748;28;20384;-81
2023/05/22 01:24:26;;;;;;;23.75;17.00;;;19.60;99.40;;;;;;5116871;28;20055;-81
2023/05/22 01:27:09;;;;;;;24.10;16.63;;;19.60;99.50;;;;;;5116394;28;20097;-81
2023/05/22 01:29:51;;;;;;;22.23;16.02;;;19.50;99.70;;;;;;5098404;28;20118;-81
2023/05/22 01:32:21;;;;;;;22.13;15.23;;;19.60;99.60;;;;;;5098165;28;20036;-81
2023/05/22 01:34:53;;;;;;;16.98;13.68;;;19.70;99.50;;;;;;5098407;28;20529;-80
2023/05/22 01:37:22;;;;;;;14.07;12.57;;;19.80;99.40;;;;;;5116418;28;20483;-81
2023/05/22 01:39:52;;;;;;;22.02;15.50;;;20.00;99.30;;;;;;5116651;28;20038;-81
2023/05/22 01:42:18;;;;;;;21.42;16.25;;;20.10;99.10;;;;;;5118196;28;20093;-80
2023/05/22 01:44:44;;;;;;;22.35;16.83;;;20.10;99.00;;;;;;5117458;28;20031;-80
2023/05/22 01:47:09;;;;;;;20.75;15.45;;;20.10;98.90;;;;;;5117389;28;20024;-80
2023/05/22 01:49:35;;;;;;;21.10;16.40;;;20.10;99.00;;;;;;5117250;28;20031;-80
2023/05/22 01:52:17;;;;;;;17.02;14.23;;;20.10;99.00;;;;;;5098513;28;20035;-80
2023/05/22 01:54:57;;;;;;;21.20;13.80;;;20.10;98.90;;;;;;5099082;28;20063;-80
2023/05/22 01:58:27;;;;;;;18.92;12.80;;;20.10;98.90;;;;;;5117273;28;20020;-80
2023/05/22 02:00:59;;;;;;;19.85;14.70;;;20.30;98.70;;;;;;5029078;28;20041;-80
2023/05/22 02:03:30;;;;;;;18.58;12.23;;;20.30;98.40;;;;;;5032710;28;20283;-80
2023/05/22 02:05:58;;;;;;;16.67;12.05;;;20.40;98.40;;;;;;5077917;28;20118;-80
2023/05/22 02:08:25;;;;;;;19.10;13.00;;;20.40;98.30;;;;;;5097619;28;20035;-80
2023/05/22 02:10:54;;;;;;;18.35;13.10;;;20.50;98.20;;;;;;5115647;28;20073;-80
2023/05/22 02:13:21;;;;;;;17.33;12.52;;;20.50;97.90;;;;;;5116019;28;20024;-80
2023/05/22 02:15:47;;;;;;;16.55;12.00;;;20.50;97.90;;;;;;5098393;28;20027;-80
2023/05/22 02:18:13;;;;;;;16.38;13.25;;;20.50;97.70;;;;;;5115990;28;20028;-80
2023/05/22 02:20:40;;;;;;;17.17;12.93;;;20.50;97.60;;;;;;5115878;28;20030;-81
2023/05/22 02:23:06;;;;;;;20.75;13.85;;;20.60;97.50;;;;;;5115671;28;20122;-80
2023/05/22 02:25:31;;;;;;;18.98;15.32;;;20.50;97.40;;;;;;5115549;28;20461;-80
2023/05/22 02:27:57;;;;;;;17.40;13.35;;;20.50;97.40;;;;;;5080172;28;20035;-80
2023/05/22 02:30:23;;;;;;;19.60;14.73;;;20.40;97.40;;;;;;5080984;28;20024;-80
2023/05/22 02:32:49;;;;;;;22.15;17.75;;;20.40;97.40;;;;;;5115947;28;20069;-81
2023/05/22 02:35:14;;;;;;;17.90;13.00;;;20.20;97.50;;;;;;5098355;28;20128;-81
2023/05/22 02:37:41;;;;;;;22.13;15.65;;;20.10;97.70;;;;;;5116590;28;20096;-81
2023/05/22 02:40:08;;;;;;;20.08;14.60;;;20.10;97.70;;;;;;5116472;28;20395;-81
2023/05/22 02:42:34;;;;;;;22.55;15.68;;;20.10;97.80;;;;;;5097588;28;20429;-80
2023/05/22 02:45:00;;;;;;;20.27;13.85;;;20.10;97.80;;;;;;5096859;28;20028;-81
2023/05/22 02:47:26;;;;;;;19.77;14.68;;;20.10;97.80;;;;;;5080245;28;20035;-80
2023/05/22 02:49:51;;;;;;;18.67;12.65;;;20.10;97.70;;;;;;5115325;28;20058;-80
2023/05/22 02:52:17;;;;;;;18.15;13.45;;;20.10;97.70;;;;;;5116041;28;20107;-80
2023/05/22 02:54:43;;;;;;;16.98;13.32;;;20.10;97.60;;;;;;5096892;28;20425;-81
2023/05/22 02:57:08;;;;;;;15.32;13.40;;;20.20;97.50;;;;;;5080245;28;20028;-81
2023/05/22 02:59:37;;;;;;;16.92;13.30;;;20.20;97.40;;;;;;5115927;28;20081;-81
2023/05/22 03:02:04;;;;;;;17.92;12.20;;;20.20;97.40;;;;;;5096947;28;20122;-80
2023/05/22 03:04:30;;;;;;;18.90;14.30;;;20.30;97.30;;;;;;5115175;28;20048;-81
2023/05/22 03:06:55;;;;;;;21.05;16.27;;;20.30;97.20;;;;;;5080044;28;20430;-81
2023/05/22 03:09:21;;;;;;;19.67;16.48;;;20.30;97.20;;;;;;5096633;28;20028;-81
2023/05/22 03:11:47;;;;;;;18.98;15.38;;;20.10;97.30;;;;;;5114112;28;20368;-81
2023/05/22 03:14:12;;;;;;;18.38;13.75;;;20.00;97.50;;;;;;5096788;28;20547;-81
2023/05/22 03:16:38;;;;;;;18.20;13.50;;;20.00;97.60;;;;;;5079432;28;20038;-81
2023/05/22 03:19:11;;;;;;;15.48;12.35;;;20.10;97.60;;;;;;5096156;28;20034;-81
2023/05/22 03:21:37;;;;;;;18.15;13.80;;;20.10;97.40;;;;;;5113480;28;20028;-81
2023/05/22 03:24:03;;;;;;;17.60;13.18;;;20.10;97.30;;;;;;5096295;28;20066;-81
2023/05/22 03:26:29;;;;;;;17.52;13.55;;;20.10;97.30;;;;;;5114398;28;20020;-81
2023/05/22 03:28:55;;;;;;;18.90;14.63;;;20.20;97.30;;;;;;5113891;28;20042;-81
2023/05/22 03:31:21;;;;;;;16.20;13.65;;;20.20;97.30;;;;;;5096225;28;20032;-81
2023/05/22 03:33:47;;;;;;;16.67;13.10;;;20.10;97.30;;;;;;5095581;28;20032;-81
2023/05/22 03:36:13;;;;;;;18.90;14.73;;;20.20;97.30;;;;;;5114032;28;20536;-81
2023/05/22 03:38:38;;;;;;;20.50;15.50;;;20.20;97.20;;;;;;5095664;28;20077;-81
2023/05/22 03:41:04;;;;;;;22.15;16.92;;;20.20;97.20;;;;;;5095758;28;20237;-81
2023/05/22 03:43:30;;;;;;;19.50;15.50;;;20.10;97.10;;;;;;5096010;28;20085;-81
2023/05/22 03:45:58;;;;;;;17.80;14.20;;;20.00;97.30;;;;;;5114239;28;20031;-81
2023/05/22 03:48:24;;;;;;;18.98;13.43;;;19.90;97.40;;;;;;5113907;28;20028;-81
2023/05/22 03:50:50;;;;;;;18.70;14.27;;;19.90;97.50;;;;;;5095893;28;20028;-81
2023/05/22 03:53:16;;;;;;;17.42;13.95;;;19.90;97.40;;;;;;5095888;28;20031;-81
2023/05/22 03:55:41;;;;;;;19.23;15.65;;;20.00;97.30;;;;;;5114092;28;20392;-81
2023/05/22 03:58:07;;;;;;;20.40;16.50;;;20.00;97.20;;;;;;5095938;28;20028;-80
2023/05/22 04:00:33;;;;;;;17.52;14.05;;;19.90;97.30;;;;;;5095604;28;20472;-81
2023/05/22 04:02:59;;;;;;;16.38;13.70;;;19.90;97.40;;;;;;5094800;28;20135;-81
2023/05/22 04:05:25;;;;;;;20.27;15.23;;;19.90;97.50;;;;;;5113579;28;20126;-80
2023/05/22 04:07:50;;;;;;;17.83;12.85;;;19.90;97.50;;;;;;5113639;28;20093;-81
2023/05/22 04:10:16;;;;;;;20.45;15.43;;;19.90;97.30;;;;;;5113538;28;20035;-82
2023/05/22 04:12:42;;;;;;;21.30;16.60;;;19.90;97.50;;;;;;5095677;28;20032;-80
2023/05/22 04:15:08;;;;;;;18.98;14.45;;;19.80;97.60;;;;;;5113624;28;20050;-81
2023/05/22 04:17:38;;;;;;;17.92;14.10;;;19.80;97.70;;;;;;5095275;28;20028;-81
2023/05/22 04:20:05;;;;;;;17.73;13.85;;;19.80;97.60;;;;;;5113550;28;20020;-82
2023/05/22 04:22:32;;;;;;;20.35;15.85;;;19.80;97.60;;;;;;5113652;28;20040;-82
2023/05/22 04:24:57;;;;;;;24.13;17.75;;;19.80;97.60;;;;;;5078396;28;20382;-81
2023/05/22 04:27:23;;;;;;;20.30;15.52;;;19.70;97.70;;;;;;5113544;28;20106;-82
2023/05/22 04:29:49;;;;;;;22.17;15.90;;;19.70;97.80;;;;;;5095346;28;20063;-81
2023/05/22 04:32:20;;;;;;;19.33;14.77;;;19.70;97.70;;;;;;5095459;28;20081;-81
2023/05/22 04:34:49;;;;;;;15.00;12.65;;;19.80;97.70;;;;;;5117799;28;20034;-80
2023/05/22 04:37:17;;;;;;;16.15;13.75;;;19.80;97.60;;;;;;5099558;28;20024;-81
2023/05/22 04:39:45;;;;;;;16.23;13.05;;;19.90;97.50;;;;;;5082844;28;20032;-81
2023/05/22 04:42:14;;;;;;;18.02;14.05;;;19.90;97.40;;;;;;5099745;28;20430;-81
2023/05/22 04:44:41;;;;;;;16.80;12.40;;;19.90;97.40;;;;;;5099565;28;20055;-81
2023/05/22 04:47:13;;;;;;;13.45;12.05;;;19.90;97.30;;;;;;5099316;28;20062;-81
2023/05/22 04:49:39;;;;;;;16.57;14.03;;;20.00;97.20;;;;;;5100099;28;20059;-80
2023/05/22 04:52:06;;;;;;;16.77;14.93;;;20.00;97.10;;;;;;5099296;28;20038;-80
2023/05/22 04:54:32;;;;;;;16.77;12.75;;;20.00;97.00;;;;;;5117567;28;20016;-81
2023/05/22 04:56:57;;;;;;;17.80;14.45;;;19.90;97.00;;;;;;5082012;28;20023;-82
2023/05/22 04:59:25;;;;;;;18.75;15.73;;;19.90;97.10;;;;;;5082791;28;20034;-80
2023/05/22 05:01:51;;;;;;;17.35;15.27;;;19.80;97.30;;;;;;5082796;28;20035;-81
2023/05/22 05:04:17;;;;;;;14.25;12.70;;;19.70;97.50;;;;;;5081659;28;20560;-81
2023/05/22 05:06:43;;;;;;;15.07;13.05;;;19.60;98.00;;;;;;5117375;28;20023;-81
2023/05/22 05:09:09;;;;;;;15.65;14.00;;;19.70;97.70;;;;;;5117512;28;20120;-81
2023/05/22 05:11:34;;;;;;;16.63;13.07;;;19.70;97.70;;;;;;5099416;28;20435;-78
2023/05/22 05:14:00;;;;;;;14.30;12.70;;;19.60;97.60;;;;;;5116940;28;20028;-77
2023/05/22 05:16:26;;;;;;;15.05;12.38;;;19.60;97.50;;;;;;5098808;28;20030;-78
2023/05/22 05:18:52;;;;;;;13.85;12.45;;;19.60;97.60;;;;;;5116975;28;20023;-76
2023/05/22 05:21:20;;;;;;;11.35;10.25;;;19.60;97.70;;;;;;5081461;28;20090;-78
2023/05/22 05:23:46;;;;;;;12.48;10.50;;;19.60;97.70;;;;;;5116990;28;20039;-77
2023/05/22 05:26:12;;;;;;;13.70;12.30;;;19.60;97.60;;;;;;5098397;28;20030;-78
2023/05/22 05:28:37;;;;;;;14.82;13.32;;;19.50;97.50;;;;;;5117011;28;20388;-77
2023/05/22 05:31:03;;;;;;;15.05;13.55;;;19.40;97.50;;;;;;5098342;28;20464;-78
2023/05/22 05:33:29;;;;;;;14.35;12.82;;;19.30;97.70;;;;;;5115902;28;20071;-78
2023/05/22 05:35:55;;;;;;;10.35;9.25;;;19.20;97.80;;;;;;5116543;28;20036;-78
2023/05/22 05:38:21;;;;;;;12.50;11.02;;;19.20;97.80;;;;;;5098182;28;20035;-78
2023/05/22 05:40:47;;;;;;;16.48;14.77;;;19.30;97.90;;;;;;5098001;28;20035;-77
2023/05/22 05:43:14;;;;;;;14.32;12.88;;;19.30;97.90;;;;;;5097998;28;20035;-78
2023/05/22 05:45:40;;;;;;;16.85;15.13;;;19.30;98.00;;;;;;5097325;28;20054;-78
2023/05/22 05:48:06;;;;;;;18.50;15.23;;;19.30;98.00;;;;;;5095496;28;20042;-79
2023/05/22 05:50:32;;;;;;;14.98;13.45;;;19.20;98.30;;;;;;5078228;28;20032;-78
2023/05/22 05:52:58;;;;;;;13.65;12.27;;;19.00;98.30;;;;;;5094819;28;20039;-79
2023/05/22 05:55:24;;;;;;;12.35;10.82;;;19.00;98.50;;;;;;5077472;28;20090;-77
2023/05/22 05:57:50;;;;;;;13.25;11.95;;;19.00;98.60;;;;;;5095652;28;20043;-76
2023/05/22 06:00:17;;;;;;;16.65;14.75;;;19.10;98.70;;;;;;5095251;28;20389;-78
2023/05/22 06:02:44;;;;;;;17.35;14.27;;;19.10;98.70;;;;;;5060306;28;20431;-77
2023/05/22 06:05:10;;;;;;;16.25;14.57;;;19.10;99.20;;;;;;5095566;28;20074;-77
2023/05/22 06:07:38;;;;;;;18.45;16.50;;;19.10;99.00;;;;;;5060607;28;20460;-78
2023/05/22 06:10:05;;;;;;;16.30;13.95;;;19.20;99.20;;;;;;5077556;28;20495;-77
2023/05/22 06:12:31;;;;;;;15.35;13.85;;;19.20;99.10;;;;;;5078440;28;20063;-78
2023/05/22 06:14:57;;;;;;;16.10;14.50;;;19.20;99.10;;;;;;5109290;28;20427;-77
2023/05/22 06:17:23;;;;;;;18.08;16.27;;;19.30;99.20;;;;;;5106873;28;20027;-78
2023/05/22 06:19:49;;;;;;;15.10;13.27;;;19.30;99.30;;;;;;5104501;28;20085;-78
2023/05/22 06:22:14;;;;;;;18.00;16.13;;;19.30;99.40;;;;;;5097653;28;20054;-78
2023/05/22 06:24:40;;;;;;;18.20;16.30;;;19.40;99.40;;;;;;5113455;28;20072;-79
2023/05/22 06:27:06;;;;;;;15.07;13.57;;;19.40;99.50;;;;;;5096711;28;20035;-76
2023/05/22 06:29:32;;;;;;;18.80;16.80;;;19.40;99.40;;;;;;5115404;28;20024;-76
2023/05/22 06:31:57;;;;;;;20.05;17.00;;;19.50;99.60;;;;;;5102377;28;20071;-76
2023/05/22 06:34:24;;;;;;;16.60;13.98;;;19.50;99.60;;;;;;5110974;28;20023;-76
2023/05/22 06:36:50;;;;;;;18.00;15.68;;;19.60;99.60;;;;;;5101242;28;20109;-76
2023/05/22 06:39:17;;;;;;;17.10;15.38;;;19.70;99.60;;;;;;5094501;28;20024;-75
2023/05/22 06:41:43;;;;;;;17.92;16.02;;;19.70;99.70;;;;;;5114297;28;20046;-76
2023/05/22 06:44:09;;;;;;;16.40;14.48;;;19.80;99.70;;;;;;5114921;28;20102;-77
2023/05/22 06:46:35;;;;;;;17.13;14.98;;;19.90;99.60;;;;;;5096738;28;20050;-75
2023/05/22 06:49:00;;;;;;;18.98;17.08;;;20.00;99.60;;;;;;5114792;28;20019;-77
2023/05/22 06:51:26;;;;;;;15.73;14.02;;;20.00;99.70;;;;;;5115065;28;20066;-76
2023/05/22 06:53:52;;;;;;;17.13;15.32;;;20.10;99.80;;;;;;5077258;28;20119;-76
2023/05/22 06:56:18;;;;;;;18.70;15.07;;;20.20;99.60;;;;;;5094485;28;20031;-77
2023/05/22 06:58:43;;;;;;;20.17;15.48;;;20.30;99.40;;;;;;5094423;28;20465;-76
2023/05/22 07:01:09;;;;;;;17.17;15.45;;;20.40;99.40;;;;;;5076151;28;20122;-76
2023/05/22 07:03:35;;;;;;;16.90;15.00;;;20.50;99.30;;;;;;5093415;28;20507;-74
2023/05/22 07:06:01;;;;;;;14.25;12.77;;;20.60;99.40;;;;;;5076203;28;20028;-76
2023/05/22 07:08:26;;;;;;;19.40;16.50;;;20.70;99.30;;;;;;5075527;28;20058;-77
2023/05/22 07:10:52;;;;;;;16.73;14.93;;;20.80;99.20;;;;;;5093834;28;20043;-76
2023/05/22 07:13:18;;;;;;;16.95;15.35;;;20.80;99.20;;;;;;5094203;28;20024;-77
2023/05/22 07:15:45;;;;;;;16.85;15.10;;;20.80;99.00;;;;;;5059726;28;20028;-78
2023/05/22 07:18:11;;;;;;;17.63;15.57;;;20.90;98.90;;;;;;5076397;28;20028;-77
2023/05/22 07:20:36;;;;;;;19.48;14.95;;;20.90;99.00;;;;;;5059311;28;20111;-77
2023/05/22 07:23:02;;;;;;;18.25;16.33;;;21.00;99.00;;;;;;5093823;28;20083;-77
2023/05/22 07:25:28;;;;;;;18.67;15.07;;;21.00;99.20;;;;;;5093889;28;20025;-78
2023/05/22 07:27:57;;;;;;;16.77;14.98;;;21.10;99.10;;;;;;5075672;28;20476;-78
2023/05/22 07:30:23;;;;;;;14.75;13.10;;;21.20;98.70;;;;;;5113284;28;20084;-78
2023/05/22 07:32:48;;;;;;;15.73;14.05;;;21.20;98.50;;;;;;5095694;28;20074;-78
2023/05/22 07:35:14;;;;;;;16.40;14.63;;;21.30;98.40;;;;;;5114134;28;20059;-78
2023/05/22 07:37:40;;;;;;;16.23;14.50;;;21.40;98.30;;;;;;5114134;28;20024;-78
2023/05/22 07:40:06;;;;;;;16.13;14.43;;;21.40;98.10;;;;;;5096829;28;20059;-78
2023/05/22 07:42:33;;;;;;;16.23;14.52;;;21.50;98.00;;;;;;5114574;28;20036;-76
2023/05/22 07:44:59;;;;;;;15.32;13.80;;;21.50;97.70;;;;;;5114133;28;20036;-77
2023/05/22 07:47:24;;;;;;;17.95;16.05;;;21.60;97.80;;;;;;5079404;28;20048;-79
2023/05/22 07:49:50;;;;;;;16.73;14.98;;;21.70;98.20;;;;;;5082755;28;20035;-80
2023/05/22 07:52:16;;;;;;;20.15;15.40;;;21.70;98.50;;;;;;5098144;28;20057;-79
2023/05/22 07:54:41;;;;;;;16.65;14.88;;;21.80;98.60;;;;;;5081823;28;20028;-80
2023/05/22 07:57:07;;;;;;;20.60;15.85;;;21.90;98.60;;;;;;5102660;28;20036;-78
2023/05/22 07:59:34;;;;;;;15.07;13.35;;;22.00;98.30;;;;;;5075927;28;20392;-77
2023/05/22 08:02:00;;;;;;;15.98;13.05;;;22.00;98.20;;;;;;5075454;28;20169;-77
2023/05/22 08:04:26;;;;;;;15.15;13.65;;;22.20;98.10;;;;;;5075451;28;20467;-77
2023/05/22 08:06:51;;;;;;;16.70;14.90;;;22.30;97.90;;;;;;5060017;28;20094;-79
2023/05/22 08:09:19;;;;;;;17.58;15.68;;;22.40;97.90;;;;;;5103907;28;20411;-78
2023/05/22 08:11:45;;;;;;;16.85;15.07;;;22.50;97.50;;;;;;5085307;28;20464;-79
2023/05/22 08:14:11;;;;;;;18.10;16.17;;;22.50;97.10;;;;;;5105187;28;20028;-80
2023/05/22 08:16:37;;;;;;;19.02;15.30;;;22.30;97.40;;;;;;5101596;28;20098;-78
2023/05/22 08:19:02;;;;;;;14.52;13.02;;;22.30;97.80;;;;;;5083370;28;20459;-78
2023/05/22 08:21:28;;;;;;;16.02;14.32;;;22.40;97.60;;;;;;5068833;28;20036;-80
2023/05/22 08:23:54;;;;;;;15.05;13.48;;;22.60;97.30;;;;;;5103434;28;20052;-78
2023/05/22 08:26:19;;;;;;;14.00;12.50;;;22.70;96.60;;;;;;5100662;28;20057;-78
2023/05/22 08:28:45;;;;;;;14.25;12.75;;;22.90;95.80;;;;;;5102156;28;20032;-78
2023/05/22 08:31:11;;;;;;;13.55;12.15;;;23.00;95.30;;;;;;5099191;28;20024;-78
2023/05/22 08:33:36;;;;;;;13.95;12.55;;;23.10;95.40;;;;;;5120817;28;20028;-78
2023/05/22 08:36:02;;;;;;;15.85;12.68;;;23.20;95.40;;;;;;5102345;28;20035;-75
2023/05/22 08:38:28;;;;;;;16.75;12.70;;;23.30;95.10;;;;;;5102289;28;20028;-76
2023/05/22 08:40:56;;;;;;;15.18;13.68;;;23.40;94.90;;;;;;5097880;28;20035;-76
2023/05/22 08:43:22;;;;;;;18.55;14.35;;;23.50;94.90;;;;;;5087451;28;20115;-76
2023/05/22 08:46:03;;;;;;;17.17;15.38;;;23.50;94.80;;;;;;5094410;28;20043;-76
2023/05/22 08:48:33;;;;;;;15.70;13.57;;;23.50;94.70;;;;;;5103249;28;20020;-78
2023/05/22 08:51:03;;;;;;;14.63;13.07;;;23.50;94.90;;;;;;5100192;28;20121;-79
2023/05/22 08:53:35;;;;;;;15.52;12.23;;;23.60;94.90;;;;;;5098031;28;20051;-78
2023/05/22 08:56:03;;;;;;;13.98;12.35;;;23.70;94.80;;;;;;5100232;28;20024;-78
2023/05/22 08:58:31;;;;;;;13.63;12.23;;;23.90;94.10;;;;;;5099259;28;20034;-76
2023/05/22 09:00:57;;;;;;;14.68;11.65;;;24.00;93.70;;;;;;5101969;28;20034;-76
2023/05/22 09:03:33;;;;;;;12.55;10.43;;;24.20;93.60;;;;;;5091650;28;20488;-76
2023/05/22 09:05:59;;;;;;;11.60;10.40;;;24.20;93.50;;;;;;5093921;28;20033;-74
2023/05/22 09:08:25;;;;;;;11.73;10.63;;;24.20;93.30;;;;;;5079336;28;20020;-75
2023/05/22 09:10:53;;;;;;;16.17;11.35;;;24.20;93.00;;;;;;5061663;28;20033;-74
2023/05/22 09:13:28;;;;;;;14.02;11.80;;;24.00;92.90;;;;;;5061302;28;20035;-74
2023/05/22 09:15:58;;;;;;;11.35;10.13;;;23.90;92.70;;;;;;5062063;28;20032;-75
2023/05/22 09:18:26;;;;;;;12.45;11.15;;;23.90;93.10;;;;;;5077937;28;20053;-75
2023/05/22 09:20:52;;;;;;;11.85;10.32;;;23.80;93.00;;;;;;5077378;28;20521;-75
2023/05/22 09:23:18;;;;;;;10.60;8.93;;;23.70;92.70;;;;;;5092764;28;20118;-75
2023/05/22 09:25:45;;;;;;;10.85;9.75;;;23.60;92.60;;;;;;5045957;28;20029;-76
2023/05/22 09:28:11;;;;;;;11.13;9.90;;;23.50;92.60;;;;;;5092650;28;20028;-76
2023/05/22 09:30:37;;;;;;;11.73;10.50;;;23.50;92.90;;;;;;5073958;28;20492;-76
2023/05/22 09:33:05;;;;;;;12.38;11.10;;;23.60;93.40;;;;;;5074587;28;20036;-76
2023/05/22 09:35:31;;;;;;;11.27;9.63;;;23.80;93.90;;;;;;5062942;28;20024;-76
2023/05/22 09:37:58;;;;;;;11.00;9.38;;;24.00;93.90;;;;;;5092206;28;20105;-75
2023/05/22 09:40:26;;;;;;;10.38;9.27;;;24.20;93.00;;;;;;5093553;28;20428;-76
2023/05/22 09:42:52;;;;;;;10.38;8.68;;;24.50;91.70;;;;;;5091458;28;20047;-77
2023/05/22 09:45:23;;;;;;;8.70;7.90;;;24.60;91.10;;;;;;5057931;28;20029;-77
2023/05/22 09:47:49;;;;;;;8.63;6.97;;;24.70;90.80;;;;;;5068628;28;20059;-77
2023/05/22 09:50:16;;;;;;;9.85;7.13;;;24.90;87.90;;;;;;5095892;28;20071;-77
2023/05/22 09:52:44;;;;;;;8.50;7.70;;;25.00;88.20;;;;;;5077822;28;20032;-77
2023/05/22 09:55:12;;;;;;;9.57;7.85;;;25.30;88.10;;;;;;5077776;28;20032;-76
2023/05/22 09:57:43;;;;;;;9.70;8.70;;;25.50;89.90;;;;;;5095593;28;20016;-76
2023/05/22 10:00:14;;;;;;;8.40;7.60;;;25.50;86.50;;;;;;5104058;28;20038;-76
2023/05/22 10:02:49;;;;;;;7.30;6.60;;;25.40;87.00;;;;;;5082723;28;20083;-76
2023/05/22 10:05:20;;;;;;;9.35;7.90;;;25.50;86.30;;;;;;5105230;28;20063;-77
2023/05/22 10:07:55;;;;;;;9.52;8.35;;;25.50;85.40;;;;;;5095721;28;20111;-75
2023/05/22 10:10:23;;;;;;;9.50;7.60;;;25.40;86.50;;;;;;5095445;28;20032;-76
2023/05/22 10:12:54;;;;;;;9.38;8.40;;;25.30;87.70;;;;;;5077198;28;20036;-76
2023/05/22 10:15:21;;;;;;;9.13;8.23;;;25.20;87.30;;;;;;5095370;28;20035;-77
2023/05/22 10:17:47;;;;;;;10.75;7.97;;;25.00;87.00;;;;;;5076952;28;20361;-77
2023/05/22 10:20:14;;;;;;;8.50;7.50;;;24.80;87.50;;;;;;5094903;28;20028;-77
2023/05/22 10:22:41;;;;;;;8.60;7.80;;;24.80;88.10;;;;;;5060026;28;20036;-77
2023/05/22 10:25:07;;;;;;;9.63;8.02;;;24.70;87.80;;;;;;5076796;28;20057;-76
2023/05/22 10:27:33;;;;;;;9.38;8.48;;;24.70;87.70;;;;;;5060360;28;20075;-76
2023/05/22 10:30:12;;;;;;;9.45;8.43;;;24.80;87.90;;;;;;5077179;28;20025;-76
2023/05/22 10:32:46;;;;;;;9.57;8.52;;;24.90;88.90;;;;;;5075895;28;20028;-76
2023/05/22 10:35:31;;;;;;;9.63;8.60;;;25.20;88.80;;;;;;5077106;28;20063;-76
2023/05/22 10:38:07;;;;;;;10.18;9.00;;;25.50;89.30;;;;;;5095118;28;20031;-79
2023/05/22 10:40:34;;;;;;;10.90;8.65;;;25.70;88.20;;;;;;5095330;28;20460;-78
2023/05/22 10:43:02;;;;;;;9.52;8.55;;;25.80;88.20;;;;;;5095184;28;20082;-78
2023/05/22 10:45:29;;;;;;;9.00;8.02;;;25.80;86.30;;;;;;5095173;28;20020;-78
2023/05/22 10:48:05;;;;;;;9.70;8.70;;;25.80;86.60;;;;;;5076975;28;20035;-78
2023/05/22 10:50:32;;;;;;;9.48;8.55;;;25.60;85.50;;;;;;5094904;28;20070;-77
2023/05/22 10:53:21;;;;;;;9.32;8.43;;;25.50;85.60;;;;;;5094380;28;20028;-77
2023/05/22 10:55:51;;;;;;;8.63;7.57;;;25.30;85.80;;;;;;5095922;28;20460;-79
2023/05/22 10:58:23;;;;;;;9.35;8.55;;;25.30;86.40;;;;;;5060581;28;20131;-78
2023/05/22 11:01:06;;;;;;;;;;;25.10;86.40;;;;;;5077919;28;20038;-78
2023/05/22 11:03:52;;;;;;;9.18;8.00;;;25.00;86.70;;;;;;5076592;28;19919;-77
2023/05/22 11:06:47;;;;;;;9.98;8.80;;;25.00;87.80;;;;;;5114623;28;20070;-80
2023/05/22 11:09:30;;;;;;;10.63;8.90;;;25.20;87.90;;;;;;5116422;28;20023;-80
2023/05/22 11:12:26;;;;;;;9.93;8.70;;;25.50;87.40;;;;;;5094696;28;20036;-79
2023/05/22 11:15:09;;;;;;;10.68;9.38;;;25.80;86.70;;;;;;5097755;28;20028;-79
2023/05/22 11:17:45;;;;;;;9.98;8.98;;;26.00;86.30;;;;;;5097922;28;20130;-79
2023/05/22 11:20:19;;;;;;;11.57;8.68;;;26.30;86.40;;;;;;5097868;28;20032;-78
2023/05/22 11:22:58;;;;;;;10.98;8.48;;;26.40;84.70;;;;;;5107463;28;20046;-78
2023/05/22 11:25:25;;;;;;;9.20;8.27;;;26.50;84.60;;;;;;5118110;28;20020;-80
2023/05/22 11:27:52;;;;;;;9.23;8.43;;;26.60;84.50;;;;;;5117344;28;20035;-80
2023/05/22 11:30:18;;;;;;;10.50;8.63;;;26.60;83.90;;;;;;5096607;28;20077;-80
2023/05/22 11:32:46;;;;;;;12.30;9.05;;;26.60;84.00;;;;;;5115874;28;20032;-79
2023/05/22 11:35:16;;;;;;;11.40;8.88;;;26.60;83.00;;;;;;5098678;28;20433;-80
2023/05/22 11:37:42;;;;;;;9.55;8.57;;;26.60;83.20;;;;;;5109362;28;20017;-80
2023/05/22 11:40:09;;;;;;;10.27;8.88;;;26.70;83.80;;;;;;5077621;28;20405;-80
2023/05/22 11:42:36;;;;;;;11.65;9.27;;;26.60;84.10;;;;;;5094564;28;20048;-79
2023/05/22 11:45:02;;;;;;;9.05;7.70;;;26.60;83.20;;;;;;5095504;28;20368;-80
2023/05/22 11:47:28;;;;;;;9.75;8.40;;;26.50;83.50;;;;;;5094306;28;20081;-81
2023/05/22 11:49:56;;;;;;;9.82;7.78;;;26.40;81.40;;;;;;5100720;28;20098;-82
2023/05/22 11:52:22;;;;;;;10.23;8.65;;;26.20;80.30;;;;;;5096079;28;20039;-81
2023/05/22 11:54:50;;;;;;;10.77;8.35;;;26.10;81.20;;;;;;5115529;28;20038;-78
2023/05/22 11:57:16;;;;;;;12.50;11.20;;;26.00;81.80;;;;;;5117092;28;20080;-79
2023/05/22 11:59:48;;;;;;;13.63;11.68;;;25.90;83.10;;;;;;5115462;28;20414;-78
2023/05/22 12:02:17;;;;;;;;;;;25.80;84.50;;;;;;5115865;28;20110;-79
2023/05/22 12:04:43;;;;;;;20.52;14.73;;;25.70;85.30;;;;;;5115402;28;19916;-79
2023/05/22 12:07:08;;;;;;;16.52;12.48;;;25.70;85.60;;;;;;5097919;28;20038;-78
2023/05/22 12:09:37;;;;;;;14.77;12.70;;;25.70;86.10;;;;;;5097236;28;20031;-78
2023/05/22 12:12:03;;;;;;;16.02;12.45;;;25.70;87.00;;;;;;5116609;28;20036;-78
2023/05/22 12:14:30;;;;;;;12.98;10.23;;;25.80;87.60;;;;;;5114955;28;20357;-79
2023/05/22 12:17:00;;;;;;;11.90;10.35;;;26.00;88.30;;;;;;5115503;28;20036;-78
2023/05/22 12:19:26;;;;;;;12.70;9.52;;;26.20;86.30;;;;;;5096613;28;20024;-78
2023/05/22 12:21:52;;;;;;;11.07;7.82;;;26.20;85.90;;;;;;5113936;28;20516;-78
2023/05/22 12:24:24;;;;;;;9.23;8.32;;;26.20;85.20;;;;;;5101333;28;20023;-78
2023/05/22 12:26:54;;;;;;;9.10;8.18;;;26.20;82.60;;;;;;5105066;28;20408;-79
2023/05/22 12:29:23;;;;;;;9.35;8.32;;;26.10;81.90;;;;;;5085188;28;20080;-78
2023/05/22 12:31:49;;;;;;;10.32;8.27;;;26.00;81.40;;;;;;5101783;28;20032;-78
2023/05/22 12:34:17;;;;;;;9.13;7.93;;;25.90;81.00;;;;;;5114687;28;20111;-78